sensor_id;sensor_type;location;lat;lon;timestamp;P1;durP1;ratioP1;P2;durP2;ratioP2
22094;SDS011;24083;55.670;37.568;2023-06-24T00:01:19;9.10;;;8.20;;
22094;SDS011;24083;55.670;37.568;2023-06-24T00:03:51;9.38;;;8.27;;
22094;SDS011;24083;55.670;37.568;2023-06-24T00:06:22;9.10;;;6.22;;
22094;SDS011;24083;55.670;37.568;2023-06-24T00:08:53;6.00;;;4.57;;
22094;SDS011;24083;55.670;37.568;2023-06-24T00:11:27;9.45;;;8.48;;
22094;SDS011;24083;55.670;37.568;2023-06-24T00:13:56;10.75;;;9.02;;
22094;SDS011;24083;55.670;37.568;2023-06-24T00:16:23;9.80;;;8.80;;
22094;SDS011;24083;55.670;37.568;2023-06-24T00:18:56;10.23;;;9.13;;
22094;SDS011;24083;55.670;37.568;2023-06-24T00:21:25;10.35;;;9.32;;
22094;SDS011;24083;55.670;37.568;2023-06-24T00:24:11;7.78;;;6.25;;
22094;SDS011;24083;55.670;37.568;2023-06-24T00:27:07;10.90;;;9.80;;
22094;SDS011;24083;55.670;37.568;2023-06-24T00:29:38;11.27;;;9.50;;
22094;SDS011;24083;55.670;37.568;2023-06-24T00:32:06;10.57;;;9.47;;
22094;SDS011;24083;55.670;37.568;2023-06-24T00:37:36;12.30;;;9.80;;
22094;SDS011;24083;55.670;37.568;2023-06-24T00:40:11;12.05;;;9.73;;
22094;SDS011;24083;55.670;37.568;2023-06-24T00:42:47;10.65;;;8.65;;
22094;SDS011;24083;55.670;37.568;2023-06-24T00:45:14;11.82;;;8.90;;
22094;SDS011;24083;55.670;37.568;2023-06-24T00:47:46;11.88;;;9.55;;
22094;SDS011;24083;55.670;37.568;2023-06-24T00:50:17;11.60;;;10.02;;
22094;SDS011;24083;55.670;37.568;2023-06-24T00:52:44;10.57;;;9.18;;
22094;SDS011;24083;55.670;37.568;2023-06-24T00:55:14;9.43;;;7.55;;
22094;SDS011;24083;55.670;37.568;2023-06-24T00:57:49;13.07;;;10.07;;
22094;SDS011;24083;55.670;37.568;2023-06-24T01:00:22;13.00;;;9.93;;
22094;SDS011;24083;55.670;37.568;2023-06-24T01:02:50;13.65;;;10.10;;
22094;SDS011;24083;55.670;37.568;2023-06-24T01:05:19;11.68;;;10.48;;
22094;SDS011;24083;55.670;37.568;2023-06-24T01:07:51;12.20;;;9.98;;
22094;SDS011;24083;55.670;37.568;2023-06-24T01:10:23;11.80;;;10.25;;
22094;SDS011;24083;55.670;37.568;2023-06-24T01:15:25;9.57;;;8.60;;
22094;SDS011;24083;55.670;37.568;2023-06-24T01:18:21;11.30;;;9.13;;
22094;SDS011;24083;55.670;37.568;2023-06-24T01:23:56;12.20;;;9.85;;
22094;SDS011;24083;55.670;37.568;2023-06-24T01:27:06;11.30;;;10.07;;
22094;SDS011;24083;55.670;37.568;2023-06-24T01:32:45;12.55;;;11.20;;
22094;SDS011;24083;55.670;37.568;2023-06-24T01:35:38;10.02;;;7.88;;
22094;SDS011;24083;55.670;37.568;2023-06-24T01:38:10;13.25;;;10.80;;
22094;SDS011;24083;55.670;37.568;2023-06-24T01:41:08;11.88;;;9.93;;
22094;SDS011;24083;55.670;37.568;2023-06-24T01:43:40;11.50;;;9.15;;
22094;SDS011;24083;55.670;37.568;2023-06-24T01:46:15;12.48;;;10.30;;
22094;SDS011;24083;55.670;37.568;2023-06-24T01:48:58;9.98;;;7.30;;
22094;SDS011;24083;55.670;37.568;2023-06-24T01:51:31;8.73;;;7.18;;
22094;SDS011;24083;55.670;37.568;2023-06-24T01:56:41;5.13;;;4.63;;
22094;SDS011;24083;55.670;37.568;2023-06-24T01:59:10;8.32;;;5.15;;
22094;SDS011;24083;55.670;37.568;2023-06-24T02:01:43;3.28;;;2.97;;
22094;SDS011;24083;55.670;37.568;2023-06-24T02:04:15;6.18;;;4.47;;
22094;SDS011;24083;55.670;37.568;2023-06-24T02:09:49;6.72;;;2.55;;
22094;SDS011;24083;55.670;37.568;2023-06-24T02:12:19;2.22;;;2.00;;
22094;SDS011;24083;55.670;37.568;2023-06-24T02:14:50;4.68;;;3.08;;
22094;SDS011;24083;55.670;37.568;2023-06-24T02:19:51;2.38;;;2.17;;
22094;SDS011;24083;55.670;37.568;2023-06-24T02:22:23;4.90;;;2.60;;
22094;SDS011;24083;55.670;37.568;2023-06-24T02:24:55;4.45;;;2.45;;
22094;SDS011;24083;55.670;37.568;2023-06-24T02:27:27;3.88;;;2.67;;
22094;SDS011;24083;55.670;37.568;2023-06-24T02:29:56;3.17;;;2.65;;
22094;SDS011;24083;55.670;37.568;2023-06-24T02:32:30;2.30;;;2.10;;
22094;SDS011;24083;55.670;37.568;2023-06-24T02:35:02;2.35;;;2.00;;
22094;SDS011;24083;55.670;37.568;2023-06-24T02:37:33;4.68;;;2.10;;
22094;SDS011;24083;55.670;37.568;2023-06-24T02:42:33;3.20;;;1.67;;
22094;SDS011;24083;55.670;37.568;2023-06-24T02:45:00;3.28;;;1.85;;
22094;SDS011;24083;55.670;37.568;2023-06-24T02:47:30;2.47;;;1.92;;
22094;SDS011;24083;55.670;37.568;2023-06-24T02:50:01;2.60;;;2.00;;
22094;SDS011;24083;55.670;37.568;2023-06-24T02:52:36;1.60;;;1.50;;
22094;SDS011;24083;55.670;37.568;2023-06-24T02:58:06;1.45;;;1.35;;
22094;SDS011;24083;55.670;37.568;2023-06-24T03:03:27;2.25;;;1.38;;
22094;SDS011;24083;55.670;37.568;2023-06-24T03:05:57;1.85;;;1.38;;
22094;SDS011;24083;55.670;37.568;2023-06-24T03:08:31;2.63;;;1.40;;
22094;SDS011;24083;55.670;37.568;2023-06-24T03:11:04;3.50;;;1.67;;
22094;SDS011;24083;55.670;37.568;2023-06-24T03:13:35;2.30;;;1.40;;
22094;SDS011;24083;55.670;37.568;2023-06-24T03:20:07;2.25;;;1.70;;
22094;SDS011;24083;55.670;37.568;2023-06-24T03:22:35;1.70;;;1.60;;
22094;SDS011;24083;55.670;37.568;2023-06-24T03:25:12;1.70;;;1.60;;
22094;SDS011;24083;55.670;37.568;2023-06-24T03:27:43;1.98;;;1.67;;
22094;SDS011;24083;55.670;37.568;2023-06-24T03:30:11;1.63;;;1.52;;
22094;SDS011;24083;55.670;37.568;2023-06-24T03:32:40;2.67;;;1.50;;
22094;SDS011;24083;55.670;37.568;2023-06-24T03:37:44;2.15;;;1.25;;
22094;SDS011;24083;55.670;37.568;2023-06-24T03:40:17;1.38;;;1.27;;
22094;SDS011;24083;55.670;37.568;2023-06-24T03:42:45;1.35;;;1.25;;
22094;SDS011;24083;55.670;37.568;2023-06-24T03:45:15;2.38;;;1.20;;
22094;SDS011;24083;55.670;37.568;2023-06-24T03:47:42;3.95;;;1.20;;
22094;SDS011;24083;55.670;37.568;2023-06-24T03:50:22;2.05;;;1.08;;
22094;SDS011;24083;55.670;37.568;2023-06-24T03:52:55;2.60;;;0.90;;
22094;SDS011;24083;55.670;37.568;2023-06-24T03:55:33;1.42;;;0.80;;
22094;SDS011;24083;55.670;37.568;2023-06-24T04:03:06;1.77;;;0.80;;
22094;SDS011;24083;55.670;37.568;2023-06-24T04:05:34;2.60;;;0.75;;
22094;SDS011;24083;55.670;37.568;2023-06-24T04:08:03;0.98;;;0.80;;
22094;SDS011;24083;55.670;37.568;2023-06-24T04:10:51;0.88;;;0.82;;
22094;SDS011;24083;55.670;37.568;2023-06-24T04:13:24;3.33;;;1.00;;
22094;SDS011;24083;55.670;37.568;2023-06-24T04:18:24;1.10;;;1.00;;
22094;SDS011;24083;55.670;37.568;2023-06-24T04:20:53;0.90;;;0.80;;
22094;SDS011;24083;55.670;37.568;2023-06-24T04:23:22;1.35;;;0.93;;
22094;SDS011;24083;55.670;37.568;2023-06-24T04:25:49;0.95;;;0.90;;
22094;SDS011;24083;55.670;37.568;2023-06-24T04:28:16;1.90;;;1.00;;
22094;SDS011;24083;55.670;37.568;2023-06-24T04:30:42;0.60;;;0.60;;
22094;SDS011;24083;55.670;37.568;2023-06-24T04:33:09;3.08;;;1.02;;
22094;SDS011;24083;55.670;37.568;2023-06-24T04:35:40;0.80;;;0.80;;
22094;SDS011;24083;55.670;37.568;2023-06-24T04:38:08;3.42;;;1.02;;
22094;SDS011;24083;55.670;37.568;2023-06-24T04:40:45;0.93;;;0.85;;
22094;SDS011;24083;55.670;37.568;2023-06-24T04:43:15;2.50;;;1.00;;
22094;SDS011;24083;55.670;37.568;2023-06-24T04:45:45;3.53;;;0.90;;
22094;SDS011;24083;55.670;37.568;2023-06-24T04:48:14;2.72;;;1.10;;
22094;SDS011;24083;55.670;37.568;2023-06-24T04:50:46;1.33;;;0.70;;
22094;SDS011;24083;55.670;37.568;2023-06-24T04:53:22;0.63;;;0.63;;
22094;SDS011;24083;55.670;37.568;2023-06-24T04:55:55;2.60;;;0.80;;
22094;SDS011;24083;55.670;37.568;2023-06-24T04:58:22;0.30;;;0.30;;
22094;SDS011;24083;55.670;37.568;2023-06-24T05:00:55;2.67;;;0.90;;
22094;SDS011;24083;55.670;37.568;2023-06-24T05:03:34;0.90;;;0.75;;
22094;SDS011;24083;55.670;37.568;2023-06-24T05:06:05;0.98;;;0.70;;
22094;SDS011;24083;55.670;37.568;2023-06-24T05:08:37;0.60;;;0.60;;
22094;SDS011;24083;55.670;37.568;2023-06-24T05:13:35;0.75;;;0.70;;
22094;SDS011;24083;55.670;37.568;2023-06-24T05:16:02;0.70;;;0.70;;
22094;SDS011;24083;55.670;37.568;2023-06-24T05:18:38;1.08;;;0.80;;
22094;SDS011;24083;55.670;37.568;2023-06-24T05:24:48;1.00;;;0.60;;
22094;SDS011;24083;55.670;37.568;2023-06-24T05:27:15;2.08;;;0.75;;
22094;SDS011;24083;55.670;37.568;2023-06-24T05:32:18;3.35;;;1.15;;
22094;SDS011;24083;55.670;37.568;2023-06-24T05:34:49;1.48;;;0.70;;
22094;SDS011;24083;55.670;37.568;2023-06-24T05:37:17;0.93;;;0.88;;
22094;SDS011;24083;55.670;37.568;2023-06-24T05:39:46;2.42;;;0.90;;
22094;SDS011;24083;55.670;37.568;2023-06-24T05:42:22;1.77;;;0.80;;
22094;SDS011;24083;55.670;37.568;2023-06-24T05:44:57;1.88;;;0.90;;
22094;SDS011;24083;55.670;37.568;2023-06-24T05:47:28;2.05;;;1.15;;
22094;SDS011;24083;55.670;37.568;2023-06-24T05:49:58;3.33;;;1.10;;
22094;SDS011;24083;55.670;37.568;2023-06-24T05:52:26;2.72;;;0.85;;
22094;SDS011;24083;55.670;37.568;2023-06-24T05:55:00;1.88;;;0.90;;
22094;SDS011;24083;55.670;37.568;2023-06-24T05:57:32;3.00;;;1.02;;
22094;SDS011;24083;55.670;37.568;2023-06-24T06:00:02;2.95;;;1.00;;
22094;SDS011;24083;55.670;37.568;2023-06-24T06:02:40;2.50;;;1.00;;
22094;SDS011;24083;55.670;37.568;2023-06-24T06:05:09;2.65;;;1.02;;
22094;SDS011;24083;55.670;37.568;2023-06-24T06:07:37;2.97;;;1.15;;
22094;SDS011;24083;55.670;37.568;2023-06-24T06:10:14;1.80;;;1.00;;
22094;SDS011;24083;55.670;37.568;2023-06-24T06:12:47;1.23;;;0.80;;
22094;SDS011;24083;55.670;37.568;2023-06-24T06:15:18;1.52;;;0.90;;
22094;SDS011;24083;55.670;37.568;2023-06-24T06:17:48;5.07;;;1.20;;
22094;SDS011;24083;55.670;37.568;2023-06-24T06:20:18;1.55;;;1.00;;
22094;SDS011;24083;55.670;37.568;2023-06-24T06:22:52;1.83;;;0.80;;
22094;SDS011;24083;55.670;37.568;2023-06-24T06:25:22;1.77;;;0.80;;
22094;SDS011;24083;55.670;37.568;2023-06-24T06:27:51;1.73;;;1.17;;
22094;SDS011;24083;55.670;37.568;2023-06-24T06:30:22;1.02;;;0.90;;
22094;SDS011;24083;55.670;37.568;2023-06-24T06:32:49;3.47;;;0.90;;
22094;SDS011;24083;55.670;37.568;2023-06-24T06:35:20;1.77;;;1.20;;
22094;SDS011;24083;55.670;37.568;2023-06-24T06:37:48;3.95;;;1.10;;
22094;SDS011;24083;55.670;37.568;2023-06-24T06:40:18;1.55;;;1.20;;
22094;SDS011;24083;55.670;37.568;2023-06-24T06:45:23;2.17;;;1.08;;
22094;SDS011;24083;55.670;37.568;2023-06-24T06:47:54;2.78;;;1.40;;
22094;SDS011;24083;55.670;37.568;2023-06-24T06:50:28;2.58;;;1.00;;
22094;SDS011;24083;55.670;37.568;2023-06-24T06:52:56;4.13;;;1.45;;
22094;SDS011;24083;55.670;37.568;2023-06-24T06:55:26;1.58;;;1.30;;
22094;SDS011;24083;55.670;37.568;2023-06-24T07:00:26;2.40;;;1.20;;
22094;SDS011;24083;55.670;37.568;2023-06-24T07:02:53;5.20;;;1.20;;
22094;SDS011;24083;55.670;37.568;2023-06-24T07:05:32;4.45;;;1.35;;
22094;SDS011;24083;55.670;37.568;2023-06-24T07:08:10;3.53;;;1.27;;
22094;SDS011;24083;55.670;37.568;2023-06-24T07:10:43;3.50;;;1.38;;
22094;SDS011;24083;55.670;37.568;2023-06-24T07:13:15;2.97;;;1.15;;
22094;SDS011;24083;55.670;37.568;2023-06-24T07:15:42;1.25;;;0.90;;
22094;SDS011;24083;55.670;37.568;2023-06-24T07:18:12;5.28;;;1.60;;
22094;SDS011;24083;55.670;37.568;2023-06-24T07:20:41;3.10;;;1.40;;
22094;SDS011;24083;55.670;37.568;2023-06-24T07:23:14;4.90;;;1.50;;
22094;SDS011;24083;55.670;37.568;2023-06-24T07:25:47;4.82;;;1.60;;
22094;SDS011;24083;55.670;37.568;2023-06-24T07:28:24;1.65;;;1.10;;
22094;SDS011;24083;55.670;37.568;2023-06-24T07:30:56;3.95;;;1.40;;
22094;SDS011;24083;55.670;37.568;2023-06-24T07:33:23;1.67;;;1.17;;
22094;SDS011;24083;55.670;37.568;2023-06-24T07:35:57;2.33;;;1.15;;
22094;SDS011;24083;55.670;37.568;2023-06-24T07:38:31;1.63;;;1.40;;
22094;SDS011;24083;55.670;37.568;2023-06-24T07:40:59;1.92;;;1.35;;
22094;SDS011;24083;55.670;37.568;2023-06-24T07:49:08;3.55;;;1.58;;
22094;SDS011;24083;55.670;37.568;2023-06-24T07:51:40;3.38;;;1.58;;
22094;SDS011;24083;55.670;37.568;2023-06-24T07:56:43;1.63;;;1.20;;
22094;SDS011;24083;55.670;37.568;2023-06-24T07:59:20;2.33;;;1.35;;
22094;SDS011;24083;55.670;37.568;2023-06-24T08:01:48;3.33;;;1.65;;
22094;SDS011;24083;55.670;37.568;2023-06-24T08:04:16;4.90;;;1.75;;
22094;SDS011;24083;55.670;37.568;2023-06-24T08:06:45;3.92;;;1.80;;
22094;SDS011;24083;55.670;37.568;2023-06-24T08:09:11;1.52;;;1.13;;
22094;SDS011;24083;55.670;37.568;2023-06-24T08:11:41;2.05;;;1.63;;
22094;SDS011;24083;55.670;37.568;2023-06-24T08:19:08;2.40;;;1.70;;
22094;SDS011;24083;55.670;37.568;2023-06-24T08:21:36;5.20;;;1.90;;
22094;SDS011;24083;55.670;37.568;2023-06-24T08:24:17;1.52;;;1.00;;
22094;SDS011;24083;55.670;37.568;2023-06-24T08:27:11;1.92;;;1.60;;
22094;SDS011;24083;55.670;37.568;2023-06-24T08:29:38;4.25;;;1.80;;
22094;SDS011;24083;55.670;37.568;2023-06-24T08:32:22;2.10;;;1.90;;
22094;SDS011;24083;55.670;37.568;2023-06-24T08:34:58;4.35;;;1.80;;
22094;SDS011;24083;55.670;37.568;2023-06-24T08:46:44;3.42;;;1.50;;
22094;SDS011;24083;55.670;37.568;2023-06-24T08:49:32;2.75;;;1.88;;
22094;SDS011;24083;55.670;37.568;2023-06-24T08:59:20;2.95;;;1.80;;
22094;SDS011;24083;55.670;37.568;2023-06-24T09:02:07;3.78;;;2.00;;
22094;SDS011;24083;55.670;37.568;2023-06-24T09:08:22;4.38;;;2.30;;
22094;SDS011;24083;55.670;37.568;2023-06-24T09:20:08;2.25;;;2.00;;
22094;SDS011;24083;55.670;37.568;2023-06-24T09:26:36;4.00;;;2.42;;
22094;SDS011;24083;55.670;37.568;2023-06-24T09:29:01;6.55;;;2.72;;
22094;SDS011;24083;55.670;37.568;2023-06-24T09:31:29;3.30;;;2.38;;
22094;SDS011;24083;55.670;37.568;2023-06-24T09:33:56;1.23;;;1.13;;
22094;SDS011;24083;55.670;37.568;2023-06-24T09:36:24;4.53;;;2.50;;
22094;SDS011;24083;55.670;37.568;2023-06-24T09:39:02;4.28;;;2.70;;
22094;SDS011;24083;55.670;37.568;2023-06-24T09:41:33;3.50;;;2.45;;
22094;SDS011;24083;55.670;37.568;2023-06-24T09:49:32;4.28;;;2.83;;
22094;SDS011;24083;55.670;37.568;2023-06-24T09:51:58;3.22;;;2.80;;
22094;SDS011;24083;55.670;37.568;2023-06-24T09:54:26;6.10;;;3.30;;
22094;SDS011;24083;55.670;37.568;2023-06-24T09:56:54;4.22;;;3.55;;
22094;SDS011;24083;55.670;37.568;2023-06-24T09:59:24;5.85;;;3.25;;
22094;SDS011;24083;55.670;37.568;2023-06-24T10:04:51;5.70;;;4.03;;
22094;SDS011;24083;55.670;37.568;2023-06-24T10:07:18;6.32;;;4.43;;
22094;SDS011;24083;55.670;37.568;2023-06-24T10:09:45;4.82;;;3.03;;
22094;SDS011;24083;55.670;37.568;2023-06-24T10:12:12;4.73;;;4.20;;
22094;SDS011;24083;55.670;37.568;2023-06-24T10:14:40;2.88;;;2.58;;
22094;SDS011;24083;55.670;37.568;2023-06-24T10:17:06;5.97;;;4.68;;
22094;SDS011;24083;55.670;37.568;2023-06-24T10:22:14;7.53;;;3.38;;
22094;SDS011;24083;55.670;37.568;2023-06-24T10:24:41;4.73;;;4.10;;
22094;SDS011;24083;55.670;37.568;2023-06-24T10:27:22;5.03;;;4.20;;
22094;SDS011;24083;55.670;37.568;2023-06-24T10:29:51;7.40;;;4.50;;
22094;SDS011;24083;55.670;37.568;2023-06-24T10:32:19;6.25;;;4.35;;
22094;SDS011;24083;55.670;37.568;2023-06-24T10:34:47;9.68;;;4.40;;
22094;SDS011;24083;55.670;37.568;2023-06-24T10:37:20;4.72;;;4.13;;
22094;SDS011;24083;55.670;37.568;2023-06-24T10:39:55;3.85;;;3.20;;
22094;SDS011;24083;55.670;37.568;2023-06-24T10:42:29;2.97;;;2.60;;
22094;SDS011;24083;55.670;37.568;2023-06-24T10:45:23;4.63;;;3.70;;
22094;SDS011;24083;55.670;37.568;2023-06-24T10:47:50;5.25;;;3.47;;
22094;SDS011;24083;55.670;37.568;2023-06-24T10:50:25;3.22;;;2.83;;
22094;SDS011;24083;55.670;37.568;2023-06-24T10:52:53;4.07;;;3.13;;
22094;SDS011;24083;55.670;37.568;2023-06-24T10:55:23;5.97;;;3.75;;
22094;SDS011;24083;55.670;37.568;2023-06-24T11:00:19;3.03;;;2.75;;
22094;SDS011;24083;55.670;37.568;2023-06-24T11:02:47;4.38;;;3.50;;
22094;SDS011;24083;55.670;37.568;2023-06-24T11:05:14;7.82;;;4.18;;
22094;SDS011;24083;55.670;37.568;2023-06-24T11:07:40;7.57;;;3.58;;
22094;SDS011;24083;55.670;37.568;2023-06-24T11:10:10;4.43;;;3.30;;
22094;SDS011;24083;55.670;37.568;2023-06-24T11:12:38;4.03;;;3.72;;
22094;SDS011;24083;55.670;37.568;2023-06-24T11:15:09;5.15;;;3.80;;
22094;SDS011;24083;55.670;37.568;2023-06-24T11:17:37;4.68;;;3.60;;
22094;SDS011;24083;55.670;37.568;2023-06-24T11:20:07;4.72;;;3.22;;
22094;SDS011;24083;55.670;37.568;2023-06-24T11:22:43;4.47;;;3.03;;
22094;SDS011;24083;55.670;37.568;2023-06-24T11:25:16;5.47;;;3.50;;
22094;SDS011;24083;55.670;37.568;2023-06-24T11:27:43;4.10;;;3.40;;
22094;SDS011;24083;55.670;37.568;2023-06-24T11:30:09;4.05;;;2.38;;
22094;SDS011;24083;55.670;37.568;2023-06-24T11:32:38;2.67;;;1.93;;
22094;SDS011;24083;55.670;37.568;2023-06-24T11:35:05;4.82;;;3.13;;
22094;SDS011;24083;55.670;37.568;2023-06-24T11:37:32;4.93;;;3.20;;
22094;SDS011;24083;55.670;37.568;2023-06-24T11:42:31;3.03;;;2.65;;
22094;SDS011;24083;55.670;37.568;2023-06-24T11:45:02;5.10;;;2.70;;
22094;SDS011;24083;55.670;37.568;2023-06-24T11:47:35;5.88;;;2.60;;
22094;SDS011;24083;55.670;37.568;2023-06-24T11:50:02;3.63;;;2.90;;
22094;SDS011;24083;55.670;37.568;2023-06-24T11:52:43;4.30;;;2.92;;
22094;SDS011;24083;55.670;37.568;2023-06-24T11:57:52;3.80;;;3.20;;
22094;SDS011;24083;55.670;37.568;2023-06-24T12:00:30;3.38;;;3.00;;
22094;SDS011;24083;55.670;37.568;2023-06-24T12:02:58;4.32;;;2.35;;
22094;SDS011;24083;55.670;37.568;2023-06-24T12:05:27;3.53;;;2.90;;
22094;SDS011;24083;55.670;37.568;2023-06-24T12:07:57;4.03;;;2.80;;
22094;SDS011;24083;55.670;37.568;2023-06-24T12:10:25;3.05;;;2.28;;
22094;SDS011;24083;55.670;37.568;2023-06-24T12:12:52;5.87;;;3.07;;
22094;SDS011;24083;55.670;37.568;2023-06-24T12:15:18;5.50;;;2.50;;
22094;SDS011;24083;55.670;37.568;2023-06-24T12:17:44;4.05;;;2.63;;
22094;SDS011;24083;55.670;37.568;2023-06-24T12:20:10;2.13;;;1.65;;
22094;SDS011;24083;55.670;37.568;2023-06-24T12:22:36;2.17;;;1.80;;
22094;SDS011;24083;55.670;37.568;2023-06-24T12:25:03;2.67;;;2.20;;
22094;SDS011;24083;55.670;37.568;2023-06-24T12:27:29;1.77;;;1.67;;
22094;SDS011;24083;55.670;37.568;2023-06-24T12:29:55;3.38;;;2.00;;
22094;SDS011;24083;55.670;37.568;2023-06-24T12:32:21;4.60;;;2.08;;
22094;SDS011;24083;55.670;37.568;2023-06-24T12:34:46;9.52;;;2.03;;
22094;SDS011;24083;55.670;37.568;2023-06-24T12:37:13;2.25;;;1.80;;
22094;SDS011;24083;55.670;37.568;2023-06-24T12:39:39;3.53;;;2.10;;
22094;SDS011;24083;55.670;37.568;2023-06-24T12:42:05;5.20;;;2.28;;
22094;SDS011;24083;55.670;37.568;2023-06-24T12:44:32;5.32;;;2.70;;
22094;SDS011;24083;55.670;37.568;2023-06-24T12:46:57;7.63;;;2.83;;
22094;SDS011;24083;55.670;37.568;2023-06-24T12:49:23;7.13;;;2.78;;
22094;SDS011;24083;55.670;37.568;2023-06-24T12:51:49;3.88;;;3.20;;
22094;SDS011;24083;55.670;37.568;2023-06-24T12:54:16;3.40;;;3.10;;
22094;SDS011;24083;55.670;37.568;2023-06-24T12:56:42;4.15;;;3.53;;
22094;SDS011;24083;55.670;37.568;2023-06-24T12:59:07;5.85;;;3.80;;
22094;SDS011;24083;55.670;37.568;2023-06-24T13:01:33;5.35;;;3.90;;
22094;SDS011;24083;55.670;37.568;2023-06-24T13:03:59;6.82;;;4.03;;
22094;SDS011;24083;55.670;37.568;2023-06-24T13:06:27;5.38;;;3.50;;
22094;SDS011;24083;55.670;37.568;2023-06-24T13:08:53;3.47;;;2.13;;
22094;SDS011;24083;55.670;37.568;2023-06-24T13:11:20;4.30;;;3.72;;
22094;SDS011;24083;55.670;37.568;2023-06-24T13:16:41;4.57;;;2.97;;
22094;SDS011;24083;55.670;37.568;2023-06-24T13:19:17;4.05;;;2.42;;
22094;SDS011;24083;55.670;37.568;2023-06-24T13:27:48;4.88;;;3.47;;
22094;SDS011;24083;55.670;37.568;2023-06-24T13:30:44;7.78;;;3.55;;
22094;SDS011;24083;55.670;37.568;2023-06-24T13:37:59;5.80;;;3.60;;
22094;SDS011;24083;55.670;37.568;2023-06-24T13:40:51;4.43;;;4.00;;
22094;SDS011;24083;55.670;37.568;2023-06-24T13:43:21;7.95;;;3.97;;
22094;SDS011;24083;55.670;37.568;2023-06-24T13:46:09;6.75;;;3.75;;
22094;SDS011;24083;55.670;37.568;2023-06-24T13:52:20;4.40;;;3.40;;
22094;SDS011;24083;55.670;37.568;2023-06-24T13:54:53;6.45;;;3.03;;
22094;SDS011;24083;55.670;37.568;2023-06-24T14:02:55;4.28;;;3.20;;
22094;SDS011;24083;55.670;37.568;2023-06-24T14:09:02;6.47;;;3.90;;
22094;SDS011;24083;55.670;37.568;2023-06-24T14:35:25;7.50;;;4.05;;
22094;SDS011;24083;55.670;37.568;2023-06-24T14:37:54;8.15;;;3.97;;
22094;SDS011;24083;55.670;37.568;2023-06-24T14:40:21;9.13;;;3.38;;
22094;SDS011;24083;55.670;37.568;2023-06-24T14:42:52;4.17;;;2.97;;
22094;SDS011;24083;55.670;37.568;2023-06-24T14:45:28;5.53;;;3.33;;
22094;SDS011;24083;55.670;37.568;2023-06-24T14:47:54;5.90;;;2.95;;
22094;SDS011;24083;55.670;37.568;2023-06-24T14:50:23;6.80;;;3.28;;
22094;SDS011;24083;55.670;37.568;2023-06-24T14:52:52;4.25;;;3.10;;
22094;SDS011;24083;55.670;37.568;2023-06-24T14:55:20;5.30;;;2.83;;
22094;SDS011;24083;55.670;37.568;2023-06-24T14:57:46;3.35;;;2.67;;
22094;SDS011;24083;55.670;37.568;2023-06-24T15:00:18;4.95;;;2.80;;
22094;SDS011;24083;55.670;37.568;2023-06-24T15:02:45;5.40;;;2.50;;
22094;SDS011;24083;55.670;37.568;2023-06-24T15:05:11;5.70;;;2.75;;
22094;SDS011;24083;55.670;37.568;2023-06-24T15:07:39;3.33;;;2.63;;
22094;SDS011;24083;55.670;37.568;2023-06-24T15:10:06;5.25;;;2.95;;
22094;SDS011;24083;55.670;37.568;2023-06-24T15:12:35;6.13;;;2.50;;
22094;SDS011;24083;55.670;37.568;2023-06-24T15:15:07;6.47;;;3.10;;
22094;SDS011;24083;55.670;37.568;2023-06-24T15:17:33;3.75;;;3.00;;
22094;SDS011;24083;55.670;37.568;2023-06-24T15:20:02;3.40;;;2.15;;
22094;SDS011;24083;55.670;37.568;2023-06-24T15:22:33;5.25;;;2.83;;
22094;SDS011;24083;55.670;37.568;2023-06-24T15:25:02;5.07;;;2.85;;
22094;SDS011;24083;55.670;37.568;2023-06-24T15:27:29;3.10;;;2.50;;
22094;SDS011;24083;55.670;37.568;2023-06-24T15:29:59;3.08;;;2.80;;
22094;SDS011;24083;55.670;37.568;2023-06-24T15:32:25;6.90;;;3.00;;
22094;SDS011;24083;55.670;37.568;2023-06-24T15:37:45;5.20;;;3.00;;
22094;SDS011;24083;55.670;37.568;2023-06-24T15:40:16;3.15;;;2.88;;
22094;SDS011;24083;55.670;37.568;2023-06-24T15:49:16;5.07;;;2.90;;
22094;SDS011;24083;55.670;37.568;2023-06-24T15:52:04;3.70;;;2.80;;
22094;SDS011;24083;55.670;37.568;2023-06-24T16:07:09;5.55;;;2.67;;
22094;SDS011;24083;55.670;37.568;2023-06-24T16:09:36;3.55;;;2.63;;
22094;SDS011;24083;55.670;37.568;2023-06-24T16:12:02;5.78;;;2.67;;
22094;SDS011;24083;55.670;37.568;2023-06-24T16:14:28;3.72;;;2.80;;
22094;SDS011;24083;55.670;37.568;2023-06-24T16:19:48;6.78;;;3.00;;
22094;SDS011;24083;55.670;37.568;2023-06-24T16:24:40;4.25;;;2.75;;
22094;SDS011;24083;55.670;37.568;2023-06-24T16:27:12;7.03;;;3.08;;
22094;SDS011;24083;55.670;37.568;2023-06-24T16:29:38;5.70;;;3.20;;
22094;SDS011;24083;55.670;37.568;2023-06-24T16:32:04;6.03;;;3.00;;
22094;SDS011;24083;55.670;37.568;2023-06-24T16:34:33;3.08;;;2.78;;
22094;SDS011;24083;55.670;37.568;2023-06-24T16:36:59;4.68;;;2.85;;
22094;SDS011;24083;55.670;37.568;2023-06-24T16:39:44;3.33;;;2.60;;
22094;SDS011;24083;55.670;37.568;2023-06-24T16:42:12;3.15;;;2.85;;
22094;SDS011;24083;55.670;37.568;2023-06-24T16:44:46;3.60;;;2.70;;
22094;SDS011;24083;55.670;37.568;2023-06-24T16:47:16;4.82;;;2.72;;
22094;SDS011;24083;55.670;37.568;2023-06-24T16:49:48;6.53;;;2.65;;
22094;SDS011;24083;55.670;37.568;2023-06-24T16:52:16;5.30;;;2.93;;
22094;SDS011;24083;55.670;37.568;2023-06-24T16:54:45;4.38;;;3.00;;
22094;SDS011;24083;55.670;37.568;2023-06-24T17:00:57;3.05;;;2.40;;
22094;SDS011;24083;55.670;37.568;2023-06-24T17:20:26;4.20;;;3.00;;
22094;SDS011;24083;55.670;37.568;2023-06-24T17:23:02;5.43;;;2.90;;
22094;SDS011;24083;55.670;37.568;2023-06-24T17:25:54;5.22;;;2.70;;
22094;SDS011;24083;55.670;37.568;2023-06-24T17:28:21;6.05;;;3.10;;
22094;SDS011;24083;55.670;37.568;2023-06-24T17:33:50;4.97;;;3.00;;
22094;SDS011;24083;55.670;37.568;2023-06-24T17:47:18;6.38;;;3.50;;
22094;SDS011;24083;55.670;37.568;2023-06-24T18:09:34;5.28;;;3.70;;
22094;SDS011;24083;55.670;37.568;2023-06-24T18:28:28;8.48;;;3.80;;
22094;SDS011;24083;55.670;37.568;2023-06-24T18:31:15;5.55;;;3.30;;
22094;SDS011;24083;55.670;37.568;2023-06-24T19:09:05;5.88;;;4.38;;
22094;SDS011;24083;55.670;37.568;2023-06-24T19:28:22;7.28;;;4.80;;
22094;SDS011;24083;55.670;37.568;2023-06-24T19:30:58;6.65;;;4.45;;
22094;SDS011;24083;55.670;37.568;2023-06-24T19:33:44;6.50;;;5.13;;
22094;SDS011;24083;55.670;37.568;2023-06-24T19:36:11;5.90;;;5.20;;
22094;SDS011;24083;55.670;37.568;2023-06-24T19:39:15;10.10;;;5.38;;
22094;SDS011;24083;55.670;37.568;2023-06-24T19:45:39;6.80;;;5.18;;
22094;SDS011;24083;55.670;37.568;2023-06-24T19:48:16;8.23;;;5.40;;
22094;SDS011;24083;55.670;37.568;2023-06-24T19:50:48;8.90;;;5.35;;
22094;SDS011;24083;55.670;37.568;2023-06-24T19:53:19;7.63;;;5.50;;
22094;SDS011;24083;55.670;37.568;2023-06-24T19:55:55;9.98;;;5.63;;
22094;SDS011;24083;55.670;37.568;2023-06-24T19:58:26;8.57;;;6.05;;
22094;SDS011;24083;55.670;37.568;2023-06-24T20:01:13;9.68;;;5.82;;
22094;SDS011;24083;55.670;37.568;2023-06-24T20:03:41;8.88;;;5.85;;
22094;SDS011;24083;55.670;37.568;2023-06-24T20:06:08;7.85;;;5.85;;
22094;SDS011;24083;55.670;37.568;2023-06-24T20:08:40;12.77;;;6.45;;
22094;SDS011;24083;55.670;37.568;2023-06-24T20:11:14;9.73;;;6.18;;
22094;SDS011;24083;55.670;37.568;2023-06-24T20:13:44;8.18;;;6.07;;
22094;SDS011;24083;55.670;37.568;2023-06-24T20:16:12;11.45;;;6.03;;
22094;SDS011;24083;55.670;37.568;2023-06-24T20:18:38;9.05;;;6.68;;
22094;SDS011;24083;55.670;37.568;2023-06-24T20:21:04;9.02;;;6.65;;
22094;SDS011;24083;55.670;37.568;2023-06-24T20:23:33;11.50;;;6.63;;